Time;durP1;ratioP1;P1;durP2;ratioP2;P2;SDS_P1;SDS_P2;PMS_P1;PMS_P2;Temp;Humidity;BMP_temperature;BMP_pressure;BME280_temperature;BME280_humidity;BME280_pressure;Samples;Min_cycle;Max_cycle;Signal;HPM_P1;HPM_P2
2023/07/17 00:02:26;;;;;;;10.68;6.30;;;;;;;18.27;80.76;100825.34;4943646;29;20075;-78
2023/07/17 00:04:54;;;;;;;12.02;6.07;;;;;;;18.35;81.07;100819.03;4943210;29;20055;-78
2023/07/17 00:07:21;;;;;;;9.13;5.72;;;;;;;18.32;81.18;100820.25;4943745;29;20062;-78
2023/07/17 00:09:47;;;;;;;12.75;6.10;;;;;;;18.29;81.65;100814.53;4943383;29;20055;-78
2023/07/17 00:12:14;;;;;;;11.30;6.50;;;;;;;18.30;81.56;100801.09;4942804;29;20119;-78
2023/07/17 00:14:40;;;;;;;11.70;6.75;;;;;;;18.39;81.14;100794.59;4946137;29;20291;-79
2023/07/17 00:17:07;;;;;;;13.90;7.07;;;;;;;18.41;81.05;100804.97;4947332;29;20078;-78
2023/07/17 00:19:34;;;;;;;12.88;6.65;;;;;;;18.47;80.65;100806.78;4947678;29;20052;-80
2023/07/17 00:22:02;;;;;;;10.63;6.28;;;;;;;18.55;80.24;100803.94;4946426;29;20119;-79
2023/07/17 00:24:28;;;;;;;12.35;6.07;;;;;;;18.53;80.01;100805.97;4946703;29;20047;-79
2023/07/17 00:26:55;;;;;;;10.43;6.30;;;;;;;18.50;80.00;100809.03;4948093;29;20070;-79
2023/07/17 00:29:24;;;;;;;11.43;6.10;;;;;;;18.37;80.76;100835.53;4946268;29;20050;-81
2023/07/17 00:31:51;;;;;;;11.23;6.30;;;;;;;18.23;81.28;100842.66;4946910;29;20039;-81
2023/07/17 00:34:18;;;;;;;12.77;6.57;;;;;;;18.23;81.64;100827.56;4946606;29;20048;-79
2023/07/17 00:36:45;;;;;;;11.90;5.90;;;;;;;18.27;81.52;100833.28;4945349;29;20056;-81
2023/07/17 00:39:14;;;;;;;12.02;5.97;;;;;;;18.12;81.78;100830.81;4947573;29;20052;-81
2023/07/17 00:41:41;;;;;;;12.05;5.93;;;;;;;18.07;82.04;100838.53;4940168;29;20184;-80
2023/07/17 00:44:08;;;;;;;9.18;5.70;;;;;;;18.15;82.31;100840.19;4945884;29;20063;-80
2023/07/17 00:46:35;;;;;;;9.82;6.13;;;;;;;18.02;82.89;100835.66;4937854;29;20055;-79
2023/07/17 00:49:03;;;;;;;10.25;5.68;;;;;;;18.06;83.24;100842.19;4946312;29;20136;-80
2023/07/17 00:51:31;;;;;;;10.65;5.97;;;;;;;18.05;83.59;100851.16;4946328;29;20052;-80
2023/07/17 00:53:57;;;;;;;11.80;6.03;;;;;;;17.98;84.17;100868.84;4946014;29;20439;-80
2023/07/17 00:56:28;;;;;;;9.57;6.00;;;;;;;17.98;84.50;100876.78;4945467;29;20075;-80
2023/07/17 00:58:55;;;;;;;14.73;6.22;;;;;;;18.03;84.71;100878.84;4945607;29;20066;-78
2023/07/17 01:01:23;;;;;;;9.48;5.78;;;;;;;17.89;85.22;100888.59;4941151;29;20131;-79
2023/07/17 01:03:52;;;;;;;9.63;5.93;;;;;;;17.89;85.40;100885.94;4943549;29;20063;-79
2023/07/17 01:06:18;;;;;;;13.88;6.00;;;;;;;17.84;85.83;100880.41;4942941;29;20075;-78
2023/07/17 01:08:45;;;;;;;10.57;6.15;;;;;;;17.76;85.96;100888.53;4932161;29;20114;-79
2023/07/17 01:11:12;;;;;;;10.32;6.22;;;;;;;17.70;85.95;100879.53;4940034;29;20130;-77
2023/07/17 01:13:50;;;;;;;10.88;6.28;;;;;;;17.67;85.96;100887.03;4943231;29;20052;-81
2023/07/17 01:16:17;;;;;;;10.13;6.25;;;;;;;17.58;86.12;100881.88;4933826;29;20049;-78
2023/07/17 01:18:44;;;;;;;10.40;5.65;;;;;;;17.46;86.27;100872.06;4943098;29;20084;-81
2023/07/17 01:21:16;;;;;;;10.80;5.80;;;;;;;17.46;87.02;100886.09;4943263;29;20122;-81
2023/07/17 01:23:45;;;;;;;10.75;6.13;;;;;;;17.43;87.26;100883.03;4943565;29;20055;-82
2023/07/17 01:26:13;;;;;;;12.50;7.78;;;;;;;17.46;87.14;100875.53;4941995;29;20063;-77
2023/07/17 01:28:40;;;;;;;10.48;5.95;;;;;;;17.48;87.04;100876.16;4942869;29;20075;-78
2023/07/17 01:31:06;;;;;;;9.65;5.82;;;;;;;17.40;87.09;100876.31;4944341;29;20059;-79
2023/07/17 01:33:33;;;;;;;8.38;5.72;;;;;;;17.38;87.34;100893.38;4945747;29;20075;-79
2023/07/17 01:36:02;;;;;;;10.40;5.78;;;;;;;17.30;87.30;100909.38;4936985;29;20131;-76
2023/07/17 01:38:29;;;;;;;9.52;5.80;;;;;;;17.14;87.38;100913.94;4941797;29;20512;-79
2023/07/17 01:40:57;;;;;;;11.30;6.47;;;;;;;17.14;87.57;100915.78;4935088;29;20059;-77
2023/07/17 01:43:23;;;;;;;14.40;6.28;;;;;;;17.02;88.02;100902.25;4944632;29;20055;-79
2023/07/17 01:45:50;;;;;;;8.57;5.70;;;;;;;16.93;88.30;100916.66;4943402;29;20059;-78
2023/07/17 01:48:17;;;;;;;8.70;5.45;;;;;;;16.87;88.55;100920.88;4944323;29;20134;-79
2023/07/17 01:50:44;;;;;;;10.65;5.75;;;;;;;16.77;88.58;100912.44;4943802;29;20137;-79
2023/07/17 01:53:10;;;;;;;7.85;5.22;;;;;;;16.80;88.54;100919.97;4939273;29;20079;-79
2023/07/17 01:55:37;;;;;;;8.82;5.20;;;;;;;16.80;88.67;100909.41;4941910;29;20052;-79
2023/07/17 01:58:05;;;;;;;12.70;5.05;;;;;;;16.77;88.51;100908.97;4944332;29;20139;-79
2023/07/17 02:00:32;;;;;;;8.45;5.45;;;;;;;16.77;88.57;100909.78;4942448;29;20063;-79
2023/07/17 02:02:58;;;;;;;8.52;4.75;;;;;;;16.80;88.60;100917.34;4941949;29;20479;-78
2023/07/17 02:05:25;;;;;;;7.88;4.65;;;;;;;16.86;87.83;100921.88;4941775;29;20090;-79
2023/07/17 02:07:52;;;;;;;7.47;5.15;;;;;;;16.91;87.42;100910.72;4940858;29;20591;-78
2023/07/17 02:10:18;;;;;;;8.25;4.97;;;;;;;16.90;87.23;100907.28;4942302;29;20087;-79
2023/07/17 02:12:45;;;;;;;7.60;4.88;;;;;;;16.98;87.37;100911.59;4941260;29;20579;-79
2023/07/17 02:15:14;;;;;;;8.32;4.93;;;;;;;17.12;86.73;100915.97;4939684;29;20084;-79
2023/07/17 02:17:40;;;;;;;7.10;4.43;;;;;;;17.13;85.88;100914.16;4941221;29;20098;-78
2023/07/17 02:20:10;;;;;;;8.55;4.82;;;;;;;17.21;85.52;100921.94;4952848;29;20116;-77
2023/07/17 02:22:37;;;;;;;7.47;4.60;;;;;;;17.24;85.39;100910.97;4952595;29;20035;-77
2023/07/17 02:25:05;;;;;;;6.55;4.53;;;;;;;17.23;85.36;100919.91;4944065;29;20412;-78
2023/07/17 02:27:32;;;;;;;7.90;4.35;;;;;;;17.19;85.19;100913.38;4941212;29;20056;-78
2023/07/17 02:29:59;;;;;;;6.78;4.43;;;;;;;17.23;84.85;100909.34;4941325;29;20059;-79
2023/07/17 02:32:27;;;;;;;7.30;4.30;;;;;;;17.20;85.05;100905.25;4942753;29;20056;-80
2023/07/17 02:34:54;;;;;;;9.00;4.57;;;;;;;17.16;85.44;100921.69;4942140;29;20047;-79
2023/07/17 02:37:21;;;;;;;8.35;4.35;;;;;;;17.16;85.08;100911.13;4941596;29;20089;-78
2023/07/17 02:39:47;;;;;;;7.80;4.65;;;;;;;17.11;84.58;100895.00;4942512;29;20107;-79
2023/07/17 02:42:14;;;;;;;7.43;4.25;;;;;;;17.02;84.91;100906.72;4943641;29;20134;-78
2023/07/17 02:44:40;;;;;;;7.70;4.30;;;;;;;16.99;85.08;100901.84;4943374;29;20048;-80
2023/07/17 02:47:07;;;;;;;7.15;4.43;;;;;;;16.95;84.83;100900.59;4941116;29;20090;-78
2023/07/17 02:49:35;;;;;;;6.45;4.50;;;;;;;17.04;85.04;100918.75;4941519;29;20135;-79
2023/07/17 02:52:02;;;;;;;8.43;4.25;;;;;;;17.02;84.70;100906.72;4941538;29;20381;-79
2023/07/17 02:54:29;;;;;;;10.27;4.40;;;;;;;17.07;84.97;100918.38;4942416;29;20052;-78
2023/07/17 02:56:58;;;;;;;8.15;4.47;;;;;;;17.02;85.12;100927.88;4943974;29;20069;-79
2023/07/17 02:59:25;;;;;;;7.53;4.53;;;;;;;16.98;85.19;100934.56;4942461;29;20056;-80
2023/07/17 03:01:51;;;;;;;7.90;4.20;;;;;;;16.89;85.63;100926.78;4942995;29;20047;-80
2023/07/17 03:04:18;;;;;;;9.82;4.38;;;;;;;16.82;86.10;100939.09;4943448;29;20086;-80
2023/07/17 03:06:46;;;;;;;8.40;4.20;;;;;;;16.75;86.60;100927.66;4942707;29;20051;-79
2023/07/17 03:09:13;;;;;;;7.75;4.30;;;;;;;16.66;87.16;100941.19;4942465;29;20504;-80
2023/07/17 03:11:39;;;;;;;8.75;4.78;;;;;;;16.57;87.58;100941.25;4942128;29;20115;-79
2023/07/17 03:14:06;;;;;;;7.45;4.90;;;;;;;16.51;88.22;100941.22;4941678;29;20134;-79
2023/07/17 03:16:33;;;;;;;9.55;4.97;;;;;;;16.51;88.74;100935.94;4941262;29;20079;-80
2023/07/17 03:18:59;;;;;;;8.48;4.90;;;;;;;16.54;88.46;100928.41;4939478;29;20353;-79
2023/07/17 03:21:28;;;;;;;10.30;4.80;;;;;;;16.59;88.96;100927.88;4938609;29;20083;-79
2023/07/17 03:23:57;;;;;;;7.28;4.63;;;;;;;16.64;88.72;100933.44;4940364;29;20058;-80
2023/07/17 03:26:24;;;;;;;9.30;4.80;;;;;;;16.68;88.88;100933.88;4938757;29;20063;-80
2023/07/17 03:28:51;;;;;;;9.70;5.32;;;;;;;16.65;88.69;100935.06;4939128;29;20134;-78
2023/07/17 03:33:45;;;;;;;9.90;4.85;;;;;;;16.52;88.68;100927.00;4958174;29;20055;-79
2023/07/17 03:36:19;;;;;;;7.05;5.25;;;;;;;16.51;88.72;100935.94;4959330;29;20562;-79
2023/07/17 03:38:47;;;;;;;8.20;5.32;;;;;;;16.46;89.05;100922.47;4961930;29;20528;-80
2023/07/17 03:41:17;;;;;;;8.60;5.10;;;;;;;16.50;89.27;100950.97;4954921;28;20047;-77
2023/07/17 03:43:44;;;;;;;7.60;4.60;;;;;;;16.42;89.73;100955.53;4954115;28;20051;-77
2023/07/17 03:46:10;;;;;;;8.57;5.18;;;;;;;16.31;90.10;100959.47;4953669;28;20043;-79
2023/07/17 03:48:37;;;;;;;6.70;4.82;;;;;;;16.29;90.29;100968.59;4954502;28;20050;-77
2023/07/17 03:51:04;;;;;;;11.20;5.57;;;;;;;16.24;90.64;100967.31;4953725;29;20114;-77
2023/07/17 03:53:30;;;;;;;9.38;5.35;;;;;;;16.19;90.75;100959.13;4954018;28;20054;-77
2023/07/17 03:55:57;;;;;;;9.23;4.97;;;;;;;16.21;91.09;100965.03;4955136;28;20069;-76
2023/07/17 03:58:25;;;;;;;11.57;5.70;;;;;;;16.16;91.23;100975.31;4953669;28;20047;-77
2023/07/17 04:00:51;;;;;;;8.35;4.88;;;;;;;16.10;91.39;100975.25;4954026;28;20051;-77
2023/07/17 04:03:18;;;;;;;8.70;4.65;;;;;;;16.15;91.62;100976.31;4956972;28;20135;-77
2023/07/17 04:05:45;;;;;;;8.65;5.55;;;;;;;16.19;91.38;100977.59;4956934;29;20107;-77
2023/07/17 04:08:11;;;;;;;8.95;5.22;;;;;;;16.12;91.39;100968.78;4956837;28;20507;-78
2023/07/17 04:10:38;;;;;;;9.50;5.75;;;;;;;16.43;91.03;100983.59;4955739;29;20075;-77
2023/07/17 04:13:05;;;;;;;8.93;5.00;;;;;;;16.96;89.64;100971.78;4955358;28;20575;-77
2023/07/17 04:15:35;;;;;;;8.98;5.45;;;;;;;17.45;86.83;100971.78;4955335;29;20043;-78
2023/07/17 04:18:02;;;;;;;7.25;5.03;;;;;;;17.98;84.33;100964.16;4954630;28;20146;-78
2023/07/17 04:20:29;;;;;;;8.23;4.93;;;;;;;18.26;82.44;100955.31;4954619;29;20138;-78
2023/07/17 04:22:55;;;;;;;10.95;4.75;;;;;;;18.51;81.13;100964.38;4955525;28;20146;-78
2023/07/17 04:25:22;;;;;;;11.18;5.05;;;;;;;18.55;80.42;100958.47;4966789;29;20110;-78
2023/07/17 04:27:49;;;;;;;6.80;4.82;;;;;;;18.42;80.26;100962.94;4961349;28;20058;-79
2023/07/17 04:30:15;;;;;;;8.27;4.88;;;;;;;18.19;80.90;100964.06;4957941;28;20134;-78
2023/07/17 04:32:43;;;;;;;8.15;5.07;;;;;;;18.47;80.52;100979.03;4955004;29;20240;-77
2023/07/17 04:35:10;;;;;;;8.57;4.45;;;;;;;18.96;78.86;100978.75;4947888;28;20075;-78
2023/07/17 04:37:37;;;;;;;6.07;4.70;;;;;;;19.02;78.10;100977.13;4954674;28;20057;-77
2023/07/17 04:40:05;;;;;;;6.60;4.22;;;;;;;18.87;78.41;100982.63;4958835;28;20098;-78
2023/07/17 04:42:31;;;;;;;7.07;4.72;;;;;;;18.51;79.25;100981.06;4955361;28;20443;-77
2023/07/17 04:44:58;;;;;;;8.20;4.72;;;;;;;18.32;80.01;100994.28;4956210;28;20468;-78
2023/07/17 04:47:24;;;;;;;8.73;4.82;;;;;;;18.31;80.28;100992.63;4961033;28;20078;-78
2023/07/17 04:49:53;;;;;;;10.27;4.32;;;;;;;18.45;79.65;101000.41;4958566;28;20051;-78
2023/07/17 04:52:20;;;;;;;7.05;4.47;;;;;;;18.81;78.88;100992.22;4956413;28;20059;-77
2023/07/17 04:54:47;;;;;;;9.65;4.60;;;;;;;18.97;77.74;100996.28;4955308;28;20057;-77
2023/07/17 04:57:14;;;;;;;8.23;4.65;;;;;;;18.69;78.09;100995.66;4956731;29;20106;-77
2023/07/17 04:59:41;;;;;;;9.63;5.20;;;;;;;18.69;78.85;101001.75;4955113;29;20102;-77
2023/07/17 05:02:07;;;;;;;6.45;4.70;;;;;;;18.72;78.47;101009.31;4952686;28;20554;-76
2023/07/17 05:04:34;;;;;;;7.15;4.00;;;;;;;18.94;78.45;101009.97;4957038;28;20103;-76
2023/07/17 05:07:03;;;;;;;7.65;4.22;;;;;;;18.88;78.48;101010.78;4969393;28;20054;-76
2023/07/17 05:09:30;;;;;;;10.05;4.60;;;;;;;18.90;78.52;101020.16;4971256;28;20051;-77
2023/07/17 05:11:57;;;;;;;7.15;4.80;;;;;;;19.00;78.26;101019.75;4975047;28;20390;-78
2023/07/17 05:14:24;;;;;;;7.93;4.75;;;;;;;19.23;76.76;101012.25;4974224;28;20051;-77
2023/07/17 05:16:50;;;;;;;6.30;4.78;;;;;;;19.15;76.77;101009.78;4960145;28;20094;-77
2023/07/17 05:19:17;;;;;;;6.10;4.15;;;;;;;19.28;77.05;101016.94;4962301;28;20269;-78
2023/07/17 05:21:44;;;;;;;7.82;4.57;;;;;;;19.48;76.41;101012.44;4974583;28;20051;-77
2023/07/17 05:24:16;;;;;;;5.75;4.00;;;;;;;19.84;75.24;101005.91;4974084;28;20145;-77
2023/07/17 05:26:43;;;;;;;7.07;4.50;;;;;;;20.54;72.81;101006.91;4964969;28;20134;-76
2023/07/17 05:29:10;;;;;;;7.65;4.03;;;;;;;21.26;70.90;101016.31;4978181;28;20296;-78
2023/07/17 05:31:37;;;;;;;7.70;4.28;;;;;;;21.74;69.26;101013.00;4957879;28;20051;-78
2023/07/17 05:34:04;;;;;;;7.15;3.97;;;;;;;21.66;68.46;101023.94;4958278;28;20142;-78
2023/07/17 05:36:31;;;;;;;9.32;4.28;;;;;;;21.24;67.94;101020.22;4965785;28;20050;-78
2023/07/17 05:38:57;;;;;;;6.15;4.25;;;;;;;22.48;66.05;101035.97;4958413;28;20055;-78
2023/07/17 05:41:26;;;;;;;10.57;4.45;;;;;;;23.10;63.35;101029.38;4958616;28;20055;-77
2023/07/17 05:43:53;;;;;;;8.98;4.72;;;;;;;23.74;61.11;101040.25;4958753;28;20153;-77
2023/07/17 05:46:20;;;;;;;7.70;3.92;;;;;;;24.23;60.12;101048.78;4956859;28;20082;-78
2023/07/17 05:48:47;;;;;;;6.13;4.32;;;;;;;23.56;61.01;101051.88;4959125;28;20054;-78
2023/07/17 05:51:13;;;;;;;6.97;4.50;;;;;;;22.64;62.93;101062.03;4960203;28;20063;-79
2023/07/17 05:53:40;;;;;;;7.53;4.03;;;;;;;21.67;65.52;101066.34;4959547;28;20055;-78
2023/07/17 05:56:07;;;;;;;7.80;4.68;;;;;;;20.25;68.79;101071.19;4959853;28;20115;-79
2023/07/17 05:58:35;;;;;;;7.53;4.60;;;;;;;20.23;69.55;101066.09;4959676;28;20547;-78
2023/07/17 06:01:02;;;;;;;9.48;4.90;;;;;;;19.76;70.98;101073.31;4959280;28;20090;-77
2023/07/17 06:03:28;;;;;;;10.25;4.70;;;;;;;20.41;70.22;101071.56;4956808;28;20134;-77
2023/07/17 06:05:55;;;;;;;7.78;4.70;;;;;;;20.94;67.51;101052.69;4961309;28;20074;-78
2023/07/17 06:08:21;;;;;;;8.85;5.00;;;;;;;20.97;67.18;101059.44;4959285;28;20126;-80
2023/07/17 06:10:49;;;;;;;8.32;4.53;;;;;;;23.18;62.34;101060.25;4961774;28;20137;-80
2023/07/17 06:13:16;;;;;;;8.45;4.20;;;;;;;23.96;60.34;101068.03;4968089;28;20050;-80
2023/07/17 06:15:45;;;;;;;7.63;4.10;;;;;;;24.45;58.47;101064.00;4966167;28;20102;-81
2023/07/17 06:18:11;;;;;;;7.53;4.72;;;;;;;25.16;57.76;101075.25;4975146;28;20086;-81
2023/07/17 06:20:38;;;;;;;7.18;4.40;;;;;;;26.17;55.97;101075.19;4966780;28;20142;-81
2023/07/17 06:23:05;;;;;;;8.75;4.35;;;;;;;26.34;55.08;101074.09;4962946;28;20062;-80
2023/07/17 06:25:31;;;;;;;8.02;4.50;;;;;;;26.62;54.01;101067.72;4961176;28;20218;-80
2023/07/17 06:27:58;;;;;;;9.60;4.60;;;;;;;26.86;54.25;101084.34;4967057;28;20483;-83
2023/07/17 06:30:25;;;;;;;7.13;4.13;;;;;;;27.16;53.58;101086.53;4965947;28;20101;-82
2023/07/17 06:32:52;;;;;;;8.90;4.72;;;;;;;27.59;51.24;101071.31;4970024;28;20075;-83
2023/07/17 06:35:19;;;;;;;7.47;4.00;;;;;;;26.82;52.24;101077.06;4962268;28;20134;-83
2023/07/17 06:37:46;;;;;;;7.47;4.53;;;;;;;26.09;53.33;101082.59;4970777;28;20055;-83
2023/07/17 06:40:13;;;;;;;9.38;4.45;;;;;;;25.51;54.49;101099.16;4961292;28;20082;-83
2023/07/17 06:42:39;;;;;;;7.95;4.65;;;;;;;26.05;53.07;101084.16;4970151;28;20466;-80
2023/07/17 06:45:08;;;;;;;10.15;5.00;;;;;;;24.68;54.74;101084.50;4970781;28;20062;-83
2023/07/17 06:47:34;;;;;;;8.85;4.60;;;;;;;25.42;55.30;101082.66;4959798;28;20135;-84
2023/07/17 06:50:02;;;;;;;7.90;4.82;;;;;;;25.91;52.52;101077.53;4972067;28;20135;-83
2023/07/17 06:52:29;;;;;;;8.02;5.35;;;;;;;26.55;51.74;101077.81;4963229;28;20142;-82
2023/07/17 06:54:56;;;;;;;12.57;5.22;;;;;;;26.62;52.76;101088.38;4962648;28;20058;-83
2023/07/17 06:57:25;;;;;;;11.95;5.40;;;;;;;26.48;51.62;101073.72;4969672;28;20086;-83
2023/07/17 06:59:51;;;;;;;8.95;5.10;;;;;;;26.61;51.22;101081.38;4963082;28;20436;-83
2023/07/17 07:02:20;;;;;;;7.85;5.03;;;;;;;26.42;51.50;101067.50;4969505;28;20090;-83
2023/07/17 07:04:47;;;;;;;9.95;5.35;;;;;;;26.61;50.91;101082.19;4963562;28;20512;-83
2023/07/17 07:07:15;;;;;;;12.52;5.78;;;;;;;26.66;49.99;101079.56;4964676;28;20075;-84
2023/07/17 07:09:42;;;;;;;8.27;5.22;;;;;;;26.50;50.27;101068.91;4962718;28;20138;-81
2023/07/17 07:12:09;;;;;;;7.78;5.57;;;;;;;26.84;50.12;101072.25;4963344;28;20116;-81
2023/07/17 07:14:36;;;;;;;10.20;5.57;;;;;;;26.48;49.97;101073.72;4960631;28;20130;-80
2023/07/17 07:17:03;;;;;;;9.15;5.10;;;;;;;25.04;52.20;101082.53;4959859;28;20102;-82
2023/07/17 07:19:29;;;;;;;8.27;5.10;;;;;;;25.04;52.26;101077.19;4962477;28;20131;-81
2023/07/17 07:21:56;;;;;;;9.20;5.05;;;;;;;25.89;51.67;101074.28;4964113;28;20086;-81
2023/07/17 07:24:24;;;;;;;13.40;5.20;;;;;;;25.70;51.16;101080.97;4966596;28;20075;-79
2023/07/17 07:26:53;;;;;;;8.70;5.22;;;;;;;25.47;51.42;101073.91;4964932;28;20107;-78
2023/07/17 07:29:20;;;;;;;11.48;5.57;;;;;;;25.63;51.75;101080.28;4963372;28;20055;-80
2023/07/17 07:31:46;;;;;;;11.88;5.60;;;;;;;25.80;51.80;101075.75;4957816;28;20061;-82
2023/07/17 07:34:13;;;;;;;7.95;5.10;;;;;;;26.06;50.43;101072.34;4961065;28;20078;-81
2023/07/17 07:36:40;;;;;;;8.50;5.15;;;;;;;25.65;51.70;101076.34;4969641;28;20075;-81
2023/07/17 07:39:07;;;;;;;8.52;5.07;;;;;;;25.86;51.22;101080.13;4962984;28;20082;-81
2023/07/17 07:41:36;;;;;;;8.05;5.00;;;;;;;25.96;50.85;101064.19;4959571;28;20092;-83
2023/07/17 07:44:03;;;;;;;12.23;5.80;;;;;;;25.08;51.94;101072.94;4968500;28;20137;-81
2023/07/17 07:46:30;;;;;;;9.63;5.70;;;;;;;25.71;50.70;101063.81;4959758;28;20043;-80
2023/07/17 07:49:00;;;;;;;9.40;6.30;;;;;;;24.32;52.39;101066.13;4968588;28;20146;-81
2023/07/17 07:51:26;;;;;;;8.93;5.45;;;;;;;25.01;51.78;101072.31;4960652;28;20111;-82
2023/07/17 07:53:53;;;;;;;9.75;6.28;;;;;;;26.19;50.98;101087.28;4963730;28;20111;-81
2023/07/17 07:56:19;;;;;;;10.57;5.90;;;;;;;26.30;50.29;101074.81;4962051;28;20047;-81
2023/07/17 07:58:49;;;;;;;11.02;6.05;;;;;;;26.61;49.27;101076.00;4966028;28;20105;-81
2023/07/17 08:01:15;;;;;;;8.75;5.38;;;;;;;26.90;47.78;101065.88;4964084;28;20051;-82
2023/07/17 08:03:42;;;;;;;9.55;6.00;;;;;;;26.63;48.32;101071.22;4962348;28;20059;-80
2023/07/17 08:06:08;;;;;;;10.20;5.35;;;;;;;26.66;47.73;101073.38;4962016;28;20138;-81
2023/07/17 08:08:35;;;;;;;8.52;6.07;;;;;;;27.11;47.50;101075.75;4960823;28;20087;-82
2023/07/17 08:11:02;;;;;;;7.13;5.53;;;;;;;26.92;47.49;101080.66;4960571;28;20106;-80
2023/07/17 08:13:29;;;;;;;7.95;6.03;;;;;;;27.05;47.81;101087.50;4960108;28;20055;-82
2023/07/17 08:15:57;;;;;;;12.30;6.55;;;;;;;27.22;47.51;101090.09;4957973;28;20119;-81
2023/07/17 08:18:23;;;;;;;7.32;5.53;;;;;;;27.14;47.77;101080.63;4957539;28;20082;-81
2023/07/17 08:20:50;;;;;;;11.05;6.30;;;;;;;26.23;48.66;101074.19;4965038;28;20162;-80
2023/07/17 08:23:25;;;;;;;8.68;5.85;;;;;;;26.60;49.13;101095.88;4958268;28;20059;-79
2023/07/17 08:25:52;;;;;;;8.43;6.03;;;;;;;27.03;48.55;101086.94;4959263;28;20055;-80
2023/07/17 08:28:18;;;;;;;9.68;6.30;;;;;;;26.47;49.72;101091.69;4958454;28;20067;-80
2023/07/17 08:30:45;;;;;;;9.82;6.22;;;;;;;25.57;50.26;101082.06;4957728;28;20083;-81
2023/07/17 08:33:13;;;;;;;10.10;5.90;;;;;;;25.62;50.33;101084.81;4957969;28;20582;-81
2023/07/17 08:35:40;;;;;;;8.48;6.18;;;;;;;26.08;49.47;101083.66;4959655;28;20126;-80
2023/07/17 08:38:06;;;;;;;10.73;6.15;;;;;;;26.25;49.27;101077.44;4960860;28;20049;-81
2023/07/17 08:40:34;;;;;;;13.73;6.10;;;;;;;26.29;49.63;101076.69;4961557;28;20051;-81
2023/07/17 08:43:01;;;;;;;8.27;6.20;;;;;;;26.85;47.98;101077.38;4962688;28;20051;-80
2023/07/17 08:45:30;;;;;;;9.15;6.07;;;;;;;26.85;48.11;101087.28;4966478;28;20111;-80
2023/07/17 08:47:57;;;;;;;9.70;6.18;;;;;;;26.99;47.36;101077.78;4961408;28;20086;-81
2023/07/17 08:50:26;;;;;;;7.47;5.68;;;;;;;26.11;48.91;101077.78;4960197;28;20051;-80
2023/07/17 08:52:55;;;;;;;8.90;6.13;;;;;;;25.49;49.08;101069.09;4956383;28;20531;-80
2023/07/17 08:55:22;;;;;;;8.07;5.85;;;;;;;25.49;49.67;101079.00;4960688;28;20055;-82
2023/07/17 08:57:53;;;;;;;10.57;5.97;;;;;;;25.46;50.14;101075.75;4960673;28;20047;-82
2023/07/17 09:00:23;;;;;;;9.88;6.53;;;;;;;25.38;50.41;101084.19;4960842;28;20137;-82
2023/07/17 09:02:50;;;;;;;8.85;6.20;;;;;;;24.73;51.46;101081.94;4958057;28;20051;-82
2023/07/17 09:05:17;;;;;;;12.45;6.15;;;;;;;24.43;52.31;101082.16;4962340;28;20145;-83
2023/07/17 09:07:47;;;;;;;9.38;6.28;;;;;;;25.81;50.44;101077.38;4960737;28;20043;-81
2023/07/17 09:10:16;;;;;;;9.43;6.28;;;;;;;26.05;50.49;101083.34;4959886;28;20047;-81
2023/07/17 09:12:43;;;;;;;10.10;6.43;;;;;;;26.42;48.98;101076.34;4960286;28;20057;-81
2023/07/17 09:15:15;;;;;;;9.25;6.20;;;;;;;25.22;49.93;101073.47;4965335;28;20070;-82
2023/07/17 09:17:42;;;;;;;8.43;5.93;;;;;;;24.59;52.15;101096.63;4959601;28;20499;-81
2023/07/17 09:20:11;;;;;;;10.25;6.43;;;;;;;25.20;51.11;101083.59;4960262;28;20055;-82
2023/07/17 09:22:39;;;;;;;9.07;5.93;;;;;;;25.26;50.88;101091.47;4976702;28;20051;-81
2023/07/17 09:25:08;;;;;;;10.32;6.30;;;;;;;25.18;50.55;101081.16;4963243;28;20107;-83
2023/07/17 09:27:44;;;;;;;11.00;6.43;;;;;;;25.37;51.13;101079.91;4962539;28;20134;-83
2023/07/17 09:30:13;;;;;;;10.50;6.10;;;;;;;25.45;50.41;101070.66;4962983;28;20499;-83
2023/07/17 09:37:47;;;;;;;14.45;6.35;;;;;;;25.53;51.40;101064.03;4992418;28;20069;-79
2023/07/17 09:40:18;;;;;;;11.98;6.22;;;;;;;25.64;51.06;101066.66;4998780;28;20054;-78
2023/07/17 09:42:53;;;;;;;17.60;6.10;;;;;;;25.60;50.93;101075.41;4996890;28;20113;-78
2023/07/17 09:45:20;;;;;;;11.73;6.00;;;;;;;25.97;51.23;101084.59;4997772;28;19925;-78
2023/07/17 09:47:49;;;;;;;10.10;6.10;;;;;;;25.32;52.23;101089.72;4994902;28;20518;-77
2023/07/17 09:50:18;;;;;;;13.85;7.10;;;;;;;25.43;51.79;101089.66;4994435;28;20047;-79
2023/07/17 09:52:45;;;;;;;13.35;6.97;;;;;;;24.82;52.36;101093.06;4996470;28;20053;-78
2023/07/17 09:55:13;;;;;;;11.73;7.05;;;;;;;24.49;52.86;101099.13;4998886;28;20483;-79
2023/07/17 09:57:43;;;;;;;8.85;6.43;;;;;;;24.39;53.13;101096.22;4997324;28;20046;-79
2023/07/17 10:00:17;;;;;;;12.55;6.97;;;;;;;24.13;52.66;101090.31;4999107;28;20122;-79
2023/07/17 10:02:53;;;;;;;12.93;6.50;;;;;;;24.21;53.79;101089.13;5000228;28;20113;-80
2023/07/17 10:05:20;;;;;;;14.63;6.75;;;;;;;24.68;52.25;101073.81;5000797;28;20050;-79
2023/07/17 10:07:49;;;;;;;12.02;6.57;;;;;;;24.77;52.08;101072.38;5000648;28;20518;-79
2023/07/17 10:10:16;;;;;;;9.13;6.18;;;;;;;25.34;51.85;101076.88;5000114;28;20494;-79
2023/07/17 10:12:45;;;;;;;7.80;5.85;;;;;;;25.83;51.02;101079.81;5001139;28;20085;-76
2023/07/17 10:15:12;;;;;;;11.10;6.60;;;;;;;25.67;51.19;101081.44;5002035;28;20102;-79
2023/07/17 10:17:39;;;;;;;9.80;6.72;;;;;;;25.43;50.95;101075.44;5002143;28;20050;-79
2023/07/17 10:20:08;;;;;;;10.43;6.90;;;;;;;25.26;50.28;101074.59;5001352;28;20129;-78
2023/07/17 10:22:38;;;;;;;10.25;6.13;;;;;;;24.96;51.04;101058.84;5000479;28;20110;-81
2023/07/17 10:25:23;;;;;;;13.23;6.10;;;;;;;25.63;51.07;101082.97;5001676;28;20570;-81
2023/07/17 10:27:57;;;;;;;9.88;6.57;;;;;;;25.07;51.15;101071.31;5001980;28;20394;-78
2023/07/17 10:30:28;;;;;;;11.13;7.05;;;;;;;25.70;51.08;101084.44;5007512;28;20486;-80
2023/07/17 10:33:06;;;;;;;15.02;7.25;;;;;;;25.91;51.42;101076.72;5000760;28;20054;-80
2023/07/17 10:35:44;;;;;;;10.55;6.43;;;;;;;25.39;51.88;101080.47;4992132;28;20105;-79
2023/07/17 10:38:12;;;;;;;11.70;6.30;;;;;;;25.36;51.68;101070.22;4999730;28;20061;-79
2023/07/17 10:40:39;;;;;;;8.93;5.75;;;;;;;25.71;51.58;101066.50;4998748;28;20085;-80
2023/07/17 10:43:15;;;;;;;12.50;6.95;;;;;;;24.84;52.46;101076.78;5006707;28;20133;-80
2023/07/17 10:45:42;;;;;;;12.35;6.97;;;;;;;24.17;53.32;101082.63;4999538;28;20141;-80
2023/07/17 10:48:12;;;;;;;15.15;6.95;;;;;;;24.62;53.20;101079.28;4994556;28;20078;-83
2023/07/17 10:50:40;;;;;;;11.38;6.80;;;;;;;24.68;53.52;101084.50;5006021;28;20159;-80
2023/07/17 10:53:09;;;;;;;12.30;7.07;;;;;;;24.72;53.61;101090.19;4998401;28;20055;-78
2023/07/17 10:55:36;;;;;;;13.18;6.88;;;;;;;25.12;51.94;101068.72;4999152;28;20046;-79
2023/07/17 10:58:02;;;;;;;11.60;6.20;;;;;;;25.88;50.87;101069.97;4996152;28;20046;-78
2023/07/17 11:00:32;;;;;;;16.65;6.72;;;;;;;26.36;50.05;101073.84;4999322;28;20141;-79
2023/07/17 11:02:58;;;;;;;11.13;6.28;;;;;;;26.05;50.29;101077.97;5006319;28;20076;-79
2023/07/17 11:05:25;;;;;;;8.70;6.65;;;;;;;25.65;51.47;101078.19;4999395;28;20070;-79
2023/07/17 11:07:55;;;;;;;13.45;7.03;;;;;;;26.35;50.25;101069.56;4998197;28;20113;-78
2023/07/17 11:10:28;;;;;;;10.88;5.38;;;;;;;26.23;48.43;101066.97;4998771;28;20042;-80
2023/07/17 11:13:04;;;;;;;9.27;5.70;;;;;;;26.11;49.66;101052.84;5001562;28;20144;-81
2023/07/17 11:15:35;;;;;;;10.55;6.65;;;;;;;25.19;50.80;101069.41;4997771;28;20437;-80
2023/07/17 11:18:05;;;;;;;9.68;6.25;;;;;;;25.51;51.50;101090.28;5000818;28;20457;-80
2023/07/17 11:20:33;;;;;;;10.45;6.65;;;;;;;25.87;50.60;101076.41;5001566;28;20063;-81
2023/07/17 11:23:03;;;;;;;11.35;6.68;;;;;;;25.68;50.02;101078.53;5001619;28;20054;-82
2023/07/17 11:25:36;;;;;;;10.02;6.18;;;;;;;25.61;49.65;101063.63;5000025;28;20054;-84
2023/07/17 11:28:06;;;;;;;9.65;6.50;;;;;;;25.72;48.96;101057.41;5002018;28;20042;-80
2023/07/17 11:30:39;;;;;;;14.38;6.32;;;;;;;25.77;49.41;101066.34;5002026;28;20097;-81
2023/07/17 11:33:07;;;;;;;11.52;6.70;;;;;;;26.23;49.52;101093.78;5008121;28;20050;-79